Commercial Point, Ohio
Current Conditions -  °F | °C
As of 1:55 PM on Monday 20 Oct 2014 (Local Time) from KLCK Reporting Station
Clear Clear  
Wind Chill: 62°   Ceiling: Unl
Heat Index: 62°   Visibility: 10mi
Dew Point: 46°   Wind: 18mph
Humidity: 56%   Direction: 210°SSW
Pressure: 29.88"   Gusts: 23mph
Location:  39.77°N, 83.06°W
Report Text: KLCK 201755Z AUTO 21016G20KT 10SM CLR 16/08 A2988 RMK AO2 T01640077
Loading
Personal Weather Stations






























Interactive Weather Map
Tropical Storm Tracking
New forecast layout! Learn more

10-Day Weather Forecast

Advertisements
Track Severe Weather on mobile